Time;durP1;ratioP1;P1;durP2;ratioP2;P2;SDS_P1;SDS_P2;PMS_P1;PMS_P2;Temp;Humidity;BMP_temperature;BMP_pressure;BME280_temperature;BME280_humidity;BME280_pressure;Samples;Min_cycle;Max_cycle;Signal;HPM_P1;HPM_P2
2022/03/25 00:01:00;;;;;;;21.52;12.25;;;-0.30;1.00;;;0.13;88.23;99834.69;5046834;27;118930;-68
2022/03/25 00:03:29;;;;;;;20.55;12.18;;;-0.40;1.00;;;0.09;88.50;99828.19;5029472;27;129712;-67
2022/03/25 00:05:59;;;;;;;21.27;12.95;;;-0.40;1.00;;;0.10;88.65;99835.16;5060859;27;130187;-68
2022/03/25 00:08:27;;;;;;;25.60;12.68;;;-0.40;1.00;;;0.15;88.17;99821.91;5060174;27;121655;-67
2022/03/25 00:10:56;;;;;;;21.85;12.32;;;-0.40;1.00;;;0.10;87.88;99824.47;5061067;27;121993;-67
2022/03/25 00:13:26;;;;;;;20.15;11.90;;;-0.60;1.00;;;0.05;87.33;99833.19;5060918;27;130773;-67
2022/03/25 00:15:55;;;;;;;20.38;12.32;;;-0.70;1.00;;;-0.06;87.73;99821.47;5060740;27;129446;-67
2022/03/25 00:18:24;;;;;;;21.10;12.90;;;-0.80;1.00;;;-0.11;88.29;99825.88;5046094;27;118517;-68
2022/03/25 00:20:53;;;;;;;21.10;12.02;;;-0.80;1.00;;;-0.17;89.16;99822.31;5028335;27;120295;-68
2022/03/25 00:23:22;;;;;;;22.73;13.23;;;-0.80;1.00;;;-0.22;89.62;99827.50;5045857;27;129226;-67
2022/03/25 00:25:50;;;;;;;20.67;12.75;;;-0.80;1.00;;;-0.24;89.71;99824.25;5060949;27;129655;-67
2022/03/25 00:28:20;;;;;;;22.80;12.40;;;-0.80;1.00;;;-0.24;90.01;99814.41;5046179;27;118700;-68
2022/03/25 00:30:51;;;;;;;22.42;13.13;;;-0.80;1.00;;;-0.38;90.78;99819.16;5029588;27;119398;-66
2022/03/25 00:33:19;;;;;;;25.45;13.20;;;-0.70;1.00;;;-0.41;90.72;99824.94;5059676;27;129856;-67
2022/03/25 00:35:48;;;;;;;22.67;12.73;;;-0.70;1.00;;;-0.40;91.14;99815.91;5060684;27;129568;-67
2022/03/25 00:38:17;;;;;;;20.30;12.43;;;-0.70;1.00;;;-0.39;91.11;99812.22;5060702;27;119519;-67
2022/03/25 00:40:47;;;;;;;20.00;11.82;;;-0.70;1.00;;;-0.41;91.45;99814.28;5060780;27;119368;-67
2022/03/25 00:43:16;;;;;;;23.45;12.85;;;-0.70;1.00;;;-0.42;91.61;99823.34;5028252;27;128804;-67
2022/03/25 00:45:44;;;;;;;22.05;13.10;;;-0.80;1.00;;;-0.40;91.34;99818.56;5060356;27;129411;-67
2022/03/25 00:48:15;;;;;;;20.42;12.77;;;-0.80;1.00;;;-0.41;91.73;99830.28;5045689;27;118871;-68
2022/03/25 00:50:44;;;;;;;25.45;13.27;;;-0.70;1.00;;;-0.40;91.65;99815.91;5061465;27;119537;-66
2022/03/25 00:53:14;;;;;;;21.85;11.70;;;-0.70;1.00;;;-0.35;91.54;99812.53;5060423;27;130014;-66
2022/03/25 00:55:44;;;;;;;21.80;12.10;;;-0.70;1.00;;;-0.32;90.66;99821.94;5045482;27;129324;-67
2022/03/25 00:58:15;;;;;;;18.20;11.15;;;-0.80;1.00;;;-0.35;90.28;99822.41;5059339;27;122309;-67
2022/03/25 01:00:44;;;;;;;22.60;13.25;;;-0.90;1.00;;;-0.39;89.47;99820.19;5060316;27;121724;-67
2022/03/25 01:03:15;;;;;;;21.58;12.65;;;-1.10;1.00;;;-0.39;89.34;99820.19;5028242;27;130272;-69
2022/03/25 01:05:44;;;;;;;21.30;12.40;;;-1.20;1.00;;;-0.41;88.98;99813.47;5045154;27;129703;-67
2022/03/25 01:08:14;;;;;;;22.73;12.73;;;-1.30;1.00;;;-0.46;89.15;99821.34;5027562;27;118381;-67
2022/03/25 01:10:44;;;;;;;22.30;12.88;;;-1.40;1.00;;;-0.52;89.11;99815.09;5045352;27;119093;-67
2022/03/25 01:13:12;;;;;;;21.70;13.13;;;-1.40;1.00;;;-0.55;88.89;99821.72;5027812;27;128783;-67
2022/03/25 01:15:41;;;;;;;20.33;12.70;;;-1.50;1.00;;;-0.60;89.94;99815.44;5045130;27;129321;-67
2022/03/25 01:18:12;;;;;;;23.08;12.73;;;-1.50;1.00;;;-0.57;90.22;99814.97;5045230;27;119312;-68
2022/03/25 01:20:43;;;;;;;21.85;12.13;;;-1.50;1.00;;;-0.59;90.05;99809.06;5051683;27;119677;-68
2022/03/25 01:23:13;;;;;;;24.95;13.10;;;-1.40;1.00;;;-0.57;90.35;99798.97;5040419;27;129799;-68
2022/03/25 01:25:42;;;;;;;24.90;13.57;;;-1.40;1.00;;;-0.57;90.26;99814.97;5044569;27;129040;-67
2022/03/25 01:28:11;;;;;;;27.52;13.57;;;-1.40;1.00;;;-0.55;90.27;99802.22;5059884;27;119653;-68
2022/03/25 01:30:39;;;;;;;22.40;13.00;;;-1.50;1.00;;;-0.57;90.71;99810.44;5044486;27;120203;-68
2022/03/25 01:33:09;;;;;;;21.50;12.48;;;-1.40;1.00;;;-0.56;91.03;99806.75;5062715;27;129894;-68
2022/03/25 01:35:37;;;;;;;22.67;13.93;;;-1.40;1.00;;;-0.58;91.14;99808.84;5059615;27;129492;-68
2022/03/25 01:38:08;;;;;;;21.30;12.35;;;-1.30;1.00;;;-0.53;90.88;99817.97;5059506;27;119515;-67
2022/03/25 01:40:37;;;;;;;21.55;12.73;;;-1.30;1.00;;;-0.48;90.52;99818.09;5045255;27;119202;-67
2022/03/25 01:43:08;;;;;;;25.80;14.07;;;-1.30;1.00;;;-0.51;90.37;99819.38;5044368;27;129346;-68
2022/03/25 01:45:39;;;;;;;23.15;13.05;;;-1.40;1.00;;;-0.52;91.67;99819.63;5044509;27;129881;-68
2022/03/25 01:48:11;;;;;;;21.77;12.65;;;-1.20;1.00;;;-0.47;91.81;99825.84;5058432;27;121941;-68
2022/03/25 01:50:43;;;;;;;25.55;13.80;;;-1.10;1.00;;;-0.41;91.49;99824.94;5059784;27;121562;-68
2022/03/25 01:53:15;;;;;;;22.10;13.50;;;-1.10;1.00;;;-0.37;91.13;99826.09;5044348;27;129177;-67
2022/03/25 01:55:53;;;;;;;23.35;13.38;;;-1.00;1.00;;;-0.32;90.73;99832.63;5044148;27;129412;-67
2022/03/25 01:58:22;;;;;;;23.48;12.32;;;-1.10;1.00;;;-0.39;91.18;99833.53;5044624;27;119773;-68
2022/03/25 02:00:53;;;;;;;22.00;12.45;;;-1.10;1.00;;;-0.32;90.78;99829.94;5059850;27;119484;-69
2022/03/25 02:03:23;;;;;;;20.58;12.57;;;-1.10;1.00;;;-0.35;90.63;99827.75;5044260;27;130265;-69
2022/03/25 02:05:52;;;;;;;21.80;12.50;;;-1.10;1.00;;;-0.30;90.22;99825.19;5027811;27;129667;-68
2022/03/25 02:08:23;;;;;;;21.75;13.55;;;-1.10;1.00;;;-0.49;90.57;99833.28;5027303;27;119042;-69
2022/03/25 02:10:52;;;;;;;20.98;13.13;;;-1.10;1.00;;;-0.49;90.43;99827.94;5044575;27;119127;-67
2022/03/25 02:13:24;;;;;;;21.73;13.07;;;-1.10;1.00;;;-0.55;90.72;99828.88;5043026;27;130550;-70
2022/03/25 02:15:59;;;;;;;26.45;14.02;;;-1.10;1.00;;;-0.47;90.70;99831.19;5027004;27;128640;-68
2022/03/25 02:18:27;;;;;;;25.40;13.50;;;-1.00;1.00;;;-0.32;90.39;99832.63;5044174;27;119559;-68
2022/03/25 02:20:56;;;;;;;20.52;12.93;;;-1.00;1.00;;;-0.31;90.31;99832.38;5029829;27;118321;-68
2022/03/25 02:23:28;;;;;;;22.65;12.80;;;-1.00;1.00;;;-0.25;90.18;99830.63;5047387;27;129266;-69
2022/03/25 02:25:58;;;;;;;21.45;12.60;;;-0.90;1.00;;;-0.21;90.08;99829.13;5047535;27;129690;-68
2022/03/25 02:28:27;;;;;;;23.95;13.98;;;-0.90;1.00;;;-0.23;90.07;99825.91;5047511;27;119926;-69
2022/03/25 02:30:59;;;;;;;24.95;13.77;;;-0.80;1.00;;;-0.32;90.37;99828.09;5048288;27;119117;-68
2022/03/25 02:33:28;;;;;;;23.73;13.52;;;-0.80;1.00;;;-0.34;90.37;99829.34;5029949;27;130605;-68
2022/03/25 02:35:56;;;;;;;25.17;13.75;;;-0.80;1.00;;;-0.44;90.62;99825.41;5047126;27;129754;-67
2022/03/25 02:38:28;;;;;;;28.42;13.70;;;-0.90;1.00;;;-0.45;90.41;99834.47;5046471;27;122297;-66
2022/03/25 02:40:58;;;;;;;30.35;14.73;;;-0.90;1.00;;;-0.30;90.40;99835.84;5047504;27;121580;-67
2022/03/25 02:43:32;;;;;;;29.60;14.63;;;-0.80;1.00;;;-0.25;90.88;99834.13;5043813;27;130539;-68
2022/03/25 02:46:07;;;;;;;22.75;12.60;;;-0.70;1.00;;;-0.12;90.24;99841.06;5046632;27;130033;-67
2022/03/25 02:48:35;;;;;;;27.27;13.55;;;-0.70;1.00;;;-0.03;90.20;99842.34;5047221;27;119808;-67
2022/03/25 02:51:04;;;;;;;24.23;13.18;;;-0.60;1.00;;;-0.03;90.42;99850.34;5044367;27;119329;-68
2022/03/25 02:53:34;;;;;;;22.75;12.90;;;-0.50;1.00;;;0.05;90.05;99859.03;5046930;27;129942;-69
2022/03/25 02:56:03;;;;;;;22.15;13.10;;;-0.40;1.00;;;0.06;90.12;99850.00;5062585;27;129956;-68
2022/03/25 02:58:31;;;;;;;21.92;12.88;;;-0.40;1.00;;;0.05;90.30;99859.88;5046393;27;119257;-69
2022/03/25 03:01:00;;;;;;;21.77;12.15;;;-0.40;1.00;;;0.04;90.14;99857.44;5030573;27;117997;-68
2022/03/25 03:03:28;;;;;;;27.80;13.93;;;-0.40;1.00;;;-0.05;91.09;99851.63;5060809;27;129942;-68
2022/03/25 03:05:57;;;;;;;22.42;13.05;;;-0.30;1.00;;;-0.01;91.22;99864.28;5043303;27;129286;-68
2022/03/25 03:08:25;;;;;;;20.45;12.15;;;-0.20;1.00;;;0.02;90.93;99854.16;5062167;27;119531;-69
2022/03/25 03:10:55;;;;;;;22.85;12.73;;;-0.20;1.00;;;0.10;90.63;99846.63;5062040;27;119260;-68
2022/03/25 03:13:24;;;;;;;21.67;13.15;;;-0.20;1.00;;;0.11;90.14;99847.44;5062055;27;129694;-68
2022/03/25 03:15:52;;;;;;;20.73;12.30;;;-0.30;1.00;;;0.12;89.04;99849.06;5061893;27;129324;-68
2022/03/25 03:18:21;;;;;;;27.85;12.93;;;-0.40;1.00;;;0.10;88.86;99845.81;5062159;27;119310;-68
2022/03/25 03:20:50;;;;;;;20.83;12.90;;;-0.60;1.00;;;0.08;88.54;99847.91;5062596;27;119647;-68
2022/03/25 03:23:19;;;;;;;25.58;13.70;;;-0.70;1.00;;;0.07;88.39;99851.63;5061778;27;129990;-67
2022/03/25 03:25:47;;;;;;;23.17;14.23;;;-0.80;1.00;;;0.07;88.65;99848.97;5029816;27;128784;-68
2022/03/25 03:28:17;;;;;;;28.95;13.90;;;-0.80;1.00;;;0.10;88.79;99840.50;5060741;27;122336;-68
2022/03/25 03:30:46;;;;;;;23.77;14.15;;;-0.80;1.00;;;0.15;88.58;99845.94;5061658;27;122091;-68
2022/03/25 03:33:14;;;;;;;23.73;13.13;;;-0.80;1.00;;;0.18;88.26;99840.94;5046272;27;128775;-69
2022/03/25 03:35:43;;;;;;;26.25;13.40;;;-0.80;1.00;;;0.25;88.57;99848.81;5043505;27;129453;-67
2022/03/25 03:38:13;;;;;;;24.20;13.02;;;-0.70;1.00;;;0.29;88.57;99854.50;5046803;27;120219;-69
2022/03/25 03:40:42;;;;;;;26.13;13.00;;;-0.70;1.00;;;0.32;88.36;99851.38;5061940;27;119191;-67
2022/03/25 03:43:11;;;;;;;25.05;15.20;;;-0.70;1.00;;;0.32;88.46;99846.81;5046028;27;129412;-69
2022/03/25 03:45:41;;;;;;;24.10;13.27;;;-0.60;1.00;;;0.25;88.83;99854.16;5061853;27;129496;-68
2022/03/25 03:48:11;;;;;;;25.90;14.55;;;-0.60;1.00;;;0.18;89.95;99864.16;5029337;27;119278;-68
2022/03/25 03:50:40;;;;;;;23.00;13.52;;;-0.50;1.00;;;0.14;90.33;99854.97;5061662;27;119499;-69
2022/03/25 03:53:09;;;;;;;31.00;17.05;;;-0.40;1.00;;;0.21;89.87;99853.00;5058922;27;129792;-68
2022/03/25 03:55:38;;;;;;;25.15;15.68;;;-0.50;1.00;;;0.25;89.33;99859.50;5023541;27;128288;-68
2022/03/25 03:58:06;;;;;;;24.00;14.43;;;-0.50;1.00;;;0.29;89.06;99855.31;5026278;27;119509;-68
2022/03/25 04:00:35;;;;;;;30.90;15.18;;;-0.50;1.00;;;0.34;88.72;99863.44;5040262;27;119600;-69
2022/03/25 04:03:07;;;;;;;25.13;15.32;;;-0.50;1.00;;;0.41;88.62;99865.19;5040911;27;129854;-69
2022/03/25 04:05:35;;;;;;;29.60;15.70;;;-0.50;1.00;;;0.54;88.65;99867.56;5040312;27;129603;-68
2022/03/25 04:08:04;;;;;;;26.42;14.98;;;-0.50;1.00;;;0.59;88.28;99870.34;5043787;27;120433;-69
2022/03/25 04:10:33;;;;;;;23.42;14.75;;;-0.40;1.00;;;0.71;88.12;99867.63;5040996;27;119648;-69
2022/03/25 04:13:01;;;;;;;24.40;14.50;;;-0.30;1.00;;;0.83;87.91;99870.28;5042441;27;129895;-68
2022/03/25 04:15:30;;;;;;;30.75;16.05;;;0.00;1.00;;;0.96;87.42;99869.97;5040181;27;129533;-70
2022/03/25 04:17:59;;;;;;;29.42;17.00;;;0.10;1.00;;;1.04;87.19;99866.13;5039947;27;122039;-70
2022/03/25 04:20:29;;;;;;;26.88;16.38;;;0.20;1.00;;;1.20;86.27;99870.69;5024780;27;121425;-71
2022/03/25 04:22:58;;;;;;;28.20;16.55;;;0.40;1.00;;;1.35;85.71;99867.47;5043221;27;129972;-70
2022/03/25 04:25:27;;;;;;;25.95;15.07;;;0.50;1.00;;;1.46;85.18;99867.66;5025163;27;130034;-69
2022/03/25 04:27:57;;;;;;;28.13;16.88;;;0.60;1.00;;;1.46;84.43;99868.44;5025858;27;119478;-67
2022/03/25 04:30:28;;;;;;;26.23;15.77;;;0.60;1.00;;;1.50;83.73;99861.56;5039416;27;119325;-69
2022/03/25 04:32:58;;;;;;;31.45;18.88;;;0.60;1.00;;;1.56;83.15;99867.84;5040131;27;130470;-69
2022/03/25 04:35:29;;;;;;;29.83;18.08;;;0.60;1.00;;;1.57;83.13;99869.44;5025553;27;129063;-69
2022/03/25 04:37:58;;;;;;;35.72;21.50;;;0.60;1.00;;;1.64;82.90;99864.75;5025386;27;119526;-68
2022/03/25 04:40:29;;;;;;;48.47;29.67;;;0.50;1.00;;;1.53;83.15;99865.66;5026052;27;119248;-68
2022/03/25 04:43:00;;;;;;;24.75;15.18;;;0.50;1.00;;;1.59;82.77;99861.97;5038298;27;130010;-70
2022/03/25 04:45:31;;;;;;;26.75;15.20;;;0.60;1.00;;;1.62;82.27;99864.16;5041484;27;129258;-71
2022/03/25 04:48:00;;;;;;;26.33;15.13;;;0.60;1.00;;;1.73;81.95;99867.81;5048502;27;119570;-70
2022/03/25 04:50:30;;;;;;;24.90;15.43;;;0.60;1.00;;;1.47;83.15;99869.28;5046474;27;120418;-74
2022/03/25 04:53:00;;;;;;;25.95;14.93;;;0.70;1.00;;;1.54;83.26;99864.56;5013528;27;129835;-71
2022/03/25 04:55:30;;;;;;;27.70;15.23;;;0.70;1.00;;;1.77;82.41;99875.09;5046837;27;129794;-71
2022/03/25 04:57:59;;;;;;;25.85;14.60;;;0.70;1.00;;;1.75;81.93;99882.56;5032658;27;118970;-72
2022/03/25 05:00:27;;;;;;;28.08;15.27;;;0.80;1.00;;;1.87;81.81;99884.34;5044311;27;119849;-70
2022/03/25 05:02:56;;;;;;;28.45;16.05;;;0.80;1.00;;;2.00;80.94;99878.66;5026290;27;129690;-71
2022/03/25 05:05:25;;;;;;;27.50;15.48;;;0.80;1.00;;;2.10;80.21;99876.16;5044756;27;129607;-72
2022/03/25 05:07:55;;;;;;;23.48;13.68;;;0.90;1.00;;;2.30;80.16;99874.81;5046543;27;122060;-72
2022/03/25 05:10:24;;;;;;;22.73;14.02;;;1.10;1.00;;;2.45;79.41;99880.38;5046712;27;121691;-71
2022/03/25 05:12:53;;;;;;;33.38;15.43;;;1.10;1.00;;;2.59;79.03;99870.09;5030875;27;129588;-71
2022/03/25 05:15:21;;;;;;;23.58;13.63;;;1.20;1.00;;;2.64;78.49;99872.81;5047600;27;129433;-72
2022/03/25 05:17:51;;;;;;;25.38;15.38;;;1.40;1.00;;;2.83;78.21;99875.97;5048711;27;119537;-71
2022/03/25 05:20:22;;;;;;;27.63;15.13;;;1.50;1.00;;;3.00;77.43;99869.75;5030054;27;118357;-71
2022/03/25 05:22:51;;;;;;;20.77;12.80;;;1.60;1.00;;;3.20;76.66;99874.50;5047241;27;129424;-71
2022/03/25 05:25:22;;;;;;;27.88;14.80;;;1.70;1.00;;;3.39;76.02;99869.59;5029047;27;129039;-72
2022/03/25 05:27:53;;;;;;;21.63;13.85;;;1.90;1.00;;;3.58;75.54;99876.22;5010533;27;119300;-70
2022/03/25 05:30:27;;;;;;;22.30;13.85;;;2.00;1.00;;;3.64;74.29;99878.94;5041552;27;119822;-73
2022/03/25 05:32:56;;;;;;;25.67;13.25;;;2.10;1.00;;;3.71;74.23;99879.50;5039763;27;129838;-71
2022/03/25 05:35:26;;;;;;;26.45;15.25;;;2.10;1.00;;;3.77;74.05;99878.47;5024957;27;128948;-71
2022/03/25 05:37:55;;;;;;;25.77;13.80;;;2.20;1.00;;;3.96;73.43;99887.75;5039981;27;119499;-70
2022/03/25 05:40:27;;;;;;;35.88;19.85;;;2.40;1.00;;;4.06;72.92;99886.22;5008072;27;118709;-72
2022/03/25 05:42:56;;;;;;;26.13;16.00;;;2.50;1.00;;;4.13;71.86;99892.19;5039560;27;130334;-72
2022/03/25 05:45:26;;;;;;;31.40;18.33;;;2.60;1.00;;;4.28;71.36;99894.94;5008154;27;129213;-71
2022/03/25 05:47:54;;;;;;;28.00;18.70;;;2.80;1.00;;;4.48;71.33;99896.94;5024528;27;120224;-71
2022/03/25 05:50:23;;;;;;;33.67;20.23;;;3.00;1.00;;;4.64;71.56;99903.22;5040349;27;120365;-72
2022/03/25 05:52:52;;;;;;;34.15;20.67;;;3.10;1.00;;;4.77;70.48;99907.28;5040004;27;131406;-72
2022/03/25 05:55:20;;;;;;;28.50;17.48;;;3.20;1.00;;;4.67;69.68;99897.31;5023808;27;129867;-70
2022/03/25 05:57:51;;;;;;;24.08;16.02;;;3.20;1.00;;;4.78;69.17;99902.72;5038029;27;122604;-72
2022/03/25 06:00:19;;;;;;;20.85;13.73;;;3.30;1.00;;;4.89;68.18;99901.66;5039497;27;121643;-72
2022/03/25 06:02:48;;;;;;;21.35;13.65;;;3.50;1.00;;;4.84;67.88;99894.38;5041937;27;130310;-72
2022/03/25 06:05:18;;;;;;;23.23;13.35;;;3.50;1.00;;;5.00;67.05;99906.03;5007369;27;128771;-72
2022/03/25 06:07:47;;;;;;;21.17;13.15;;;3.60;1.00;;;5.10;66.98;99905.25;5024532;27;119207;-73
2022/03/25 06:10:16;;;;;;;23.13;13.45;;;3.70;1.00;;;5.19;66.42;99910.94;5039145;27;119344;-70
2022/03/25 06:12:45;;;;;;;23.33;15.00;;;3.80;1.00;;;5.30;66.43;99909.88;5003566;27;128933;-72
2022/03/25 06:15:16;;;;;;;25.42;14.32;;;3.90;1.00;;;5.35;66.09;99901.78;5038625;27;129357;-71
2022/03/25 06:17:47;;;;;;;22.90;13.32;;;3.90;1.00;;;5.43;65.63;99915.81;5029801;27;120087;-72
2022/03/25 06:20:19;;;;;;;26.25;15.75;;;4.00;1.00;;;5.62;65.49;99916.09;5018582;28;119752;-72
2022/03/25 06:22:49;;;;;;;22.70;14.52;;;4.20;1.00;;;5.73;65.67;99923.94;5019460;28;130632;-72
2022/03/25 06:25:20;;;;;;;22.23;14.10;;;4.30;1.00;;;5.79;65.33;99932.81;4986365;28;129388;-73
2022/03/25 06:27:52;;;;;;;25.73;13.88;;;4.40;1.00;;;5.89;65.14;99937.38;5000997;28;119409;-71
2022/03/25 06:30:25;;;;;;;22.98;14.07;;;4.50;1.00;;;5.98;65.13;99932.28;5002931;28;119351;-71
2022/03/25 06:32:54;;;;;;;20.55;13.35;;;4.70;1.00;;;6.19;63.95;99930.41;5019660;28;129690;-73
2022/03/25 06:35:22;;;;;;;22.35;13.90;;;4.80;1.00;;;6.23;64.26;99926.06;5000459;28;129544;-72
2022/03/25 06:37:53;;;;;;;21.63;14.18;;;4.80;1.00;;;6.42;63.86;99935.22;5018025;28;120211;-72
2022/03/25 06:40:22;;;;;;;22.55;14.65;;;5.00;1.00;;;6.60;62.74;99935.69;5018805;28;119146;-72
2022/03/25 06:42:52;;;;;;;21.10;13.85;;;5.20;1.00;;;6.79;62.00;99925.94;5002817;28;129892;-73
2022/03/25 06:45:24;;;;;;;25.85;14.20;;;5.30;1.00;;;6.99;60.61;99927.72;5002941;28;129005;-73
2022/03/25 06:47:53;;;;;;;25.38;14.82;;;5.40;1.00;;;7.05;60.49;99931.22;5017093;28;122539;-72
2022/03/25 06:50:24;;;;;;;21.33;14.43;;;5.40;1.00;;;7.26;59.84;99931.09;5017892;28;121898;-70
2022/03/25 06:52:53;;;;;;;25.05;15.18;;;5.60;1.00;;;7.43;59.09;99926.13;5017854;28;129837;-71
2022/03/25 06:55:23;;;;;;;21.10;14.43;;;5.70;1.00;;;7.59;58.80;99934.13;5018035;28;129451;-77
2022/03/25 06:57:59;;;;;;;32.60;17.85;;;5.70;1.00;;;7.70;57.87;99920.28;5003583;28;119554;-76
2022/03/25 07:00:38;;;;;;;30.23;17.90;;;6.00;1.00;;;7.77;57.66;99922.66;5021016;28;119397;-76
2022/03/25 07:03:14;;;;;;;29.95;17.88;;;6.00;1.00;;;7.99;57.29;99927.59;5002581;28;130264;-77
2022/03/25 07:05:55;;;;;;;31.83;17.80;;;6.10;1.00;;;8.20;56.75;99932.84;5002309;28;129375;-75
2022/03/25 07:08:27;;;;;;;27.70;17.13;;;6.40;1.00;;;8.36;56.26;99925.41;4989766;28;119234;-74
2022/03/25 07:10:59;;;;;;;31.15;16.58;;;6.50;1.00;;;8.56;55.61;99929.81;5007003;28;119244;-76
2022/03/25 07:13:29;;;;;;;25.35;14.55;;;6.60;1.00;;;8.52;55.63;99926.84;5004685;28;129677;-74
2022/03/25 07:15:59;;;;;;;30.30;18.70;;;6.60;1.00;;;8.70;54.92;99935.34;5006445;28;129627;-76
2022/03/25 07:18:27;;;;;;;26.58;16.73;;;6.80;1.00;;;8.76;54.05;99923.38;5023461;28;119506;-75
2022/03/25 07:20:59;;;;;;;27.08;16.73;;;6.80;1.00;;;8.94;53.60;99925.31;5023051;28;119257;-74
2022/03/25 07:23:27;;;;;;;35.85;21.13;;;6.90;1.00;;;9.18;53.34;99919.06;5021356;28;131170;-76
2022/03/25 07:25:56;;;;;;;35.97;23.08;;;7.20;1.00;;;9.30;53.57;99915.88;5022883;28;129094;-74
2022/03/25 07:28:24;;;;;;;39.72;21.90;;;7.40;1.00;;;9.63;52.55;99922.19;5021311;28;120091;-76
2022/03/25 07:30:53;;;;;;;41.90;22.67;;;7.60;1.00;;;9.83;52.89;99917.53;5023574;28;119049;-75
2022/03/25 07:33:22;;;;;;;41.67;22.48;;;7.80;1.00;;;10.05;52.11;99917.72;5020934;28;129978;-76
2022/03/25 07:35:51;;;;;;;36.95;21.58;;;7.90;1.00;;;10.12;51.90;99909.19;5021510;28;129198;-74
2022/03/25 07:38:19;;;;;;;38.85;21.63;;;8.00;1.00;;;10.33;51.02;99917.81;5020103;28;121807;-74
2022/03/25 07:40:48;;;;;;;35.03;19.33;;;8.10;1.00;;;10.32;50.40;99913.44;5021231;28;122715;-75
2022/03/25 07:43:16;;;;;;;32.67;15.25;;;8.10;1.00;;;10.22;49.39;99919.03;5020762;28;130168;-75
2022/03/25 07:45:45;;;;;;;23.98;14.18;;;8.10;1.00;;;10.36;49.55;99917.19;5021450;28;129405;-76
2022/03/25 07:48:13;;;;;;;19.90;13.23;;;8.30;1.00;;;10.36;48.26;99913.66;5020408;28;119504;-75
2022/03/25 07:50:44;;;;;;;18.95;13.00;;;8.20;1.00;;;10.49;48.21;99922.94;5021883;28;119607;-75
2022/03/25 07:53:12;;;;;;;21.13;13.00;;;8.40;1.00;;;10.43;48.24;99917.59;5021448;28;129735;-75
2022/03/25 07:55:42;;;;;;;21.80;12.98;;;8.40;1.00;;;10.63;47.82;99910.19;5020947;28;130115;-74
2022/03/25 07:58:11;;;;;;;23.63;13.32;;;8.50;1.00;;;10.81;47.65;99907.66;5023705;28;119846;-73
2022/03/25 08:00:40;;;;;;;20.83;12.18;;;8.80;1.00;;;11.07;46.81;99910.66;5003124;28;119490;-76
2022/03/25 08:03:08;;;;;;;22.75;12.90;;;9.00;1.00;;;11.19;46.72;99907.38;5019690;28;130863;-74
2022/03/25 08:05:37;;;;;;;19.17;12.23;;;9.20;1.00;;;11.24;46.28;99910.00;5005800;28;128476;-76
2022/03/25 08:08:08;;;;;;;26.92;13.75;;;9.30;1.00;;;11.06;46.45;99904.38;5021323;28;119522;-75
2022/03/25 08:10:39;;;;;;;27.05;13.80;;;9.10;1.00;;;11.19;46.93;99910.94;5021176;28;120700;-75
2022/03/25 08:13:09;;;;;;;21.95;13.38;;;9.30;1.00;;;11.12;46.87;99919.47;5005840;28;128582;-74
2022/03/25 08:15:37;;;;;;;22.05;13.23;;;9.30;1.00;;;11.46;46.29;99911.94;5020324;28;129696;-75
2022/03/25 08:18:10;;;;;;;21.83;13.35;;;9.50;1.00;;;11.60;46.12;99901.03;5019884;27;119742;-75
2022/03/25 08:20:41;;;;;;;24.70;12.73;;;9.70;1.00;;;11.92;45.48;99915.47;5023351;28;119354;-75
2022/03/25 08:23:13;;;;;;;25.80;12.73;;;9.90;1.00;;;11.77;45.20;99903.06;5000405;28;131021;-74
2022/03/25 08:28:28;;;;;;;22.93;12.83;;;9.80;1.00;;;11.90;45.48;99895.97;4999626;28;121718;-75
2022/03/25 08:30:56;;;;;;;23.73;11.70;;;9.80;1.00;;;11.90;45.73;99893.22;4985700;28;122165;-74
2022/03/25 08:33:25;;;;;;;20.92;11.18;;;9.90;1.00;;;12.00;45.52;99893.81;4985661;28;129524;-74
2022/03/25 08:35:53;;;;;;;20.20;11.55;;;10.00;1.00;;;12.03;45.52;99893.19;4968701;28;129696;-75
2022/03/25 08:38:24;;;;;;;26.42;12.88;;;10.10;1.00;;;12.20;45.10;99881.59;4985937;28;119608;-75
2022/03/25 08:40:52;;;;;;;18.65;11.40;;;10.20;1.00;;;12.20;44.91;99886.22;5001979;28;119113;-75
2022/03/25 08:43:21;;;;;;;17.77;9.93;;;10.40;1.00;;;12.02;44.65;99893.50;5000243;28;130182;-74
2022/03/25 08:45:49;;;;;;;16.90;10.55;;;10.10;1.00;;;12.23;44.41;99891.84;5002278;28;129387;-74
2022/03/25 08:48:18;;;;;;;18.13;10.55;;;10.30;1.00;;;12.36;44.66;99883.91;5000131;28;119843;-75
2022/03/25 08:50:46;;;;;;;19.45;10.77;;;10.40;1.00;;;12.34;45.18;99886.13;4999858;28;119479;-75
2022/03/25 08:53:15;;;;;;;27.05;11.02;;;10.50;1.00;;;12.32;44.67;99889.16;4998662;28;130095;-75
2022/03/25 08:55:45;;;;;;;16.35;10.60;;;10.60;1.00;;;12.32;44.85;99882.91;4999745;28;129285;-75
2022/03/25 08:58:14;;;;;;;20.58;10.75;;;10.30;1.00;;;12.33;44.44;99884.53;5000266;28;119595;-75
2022/03/25 09:00:43;;;;;;;15.18;10.23;;;10.50;1.00;;;12.35;44.80;99882.28;4985334;28;119273;-76
2022/03/25 09:03:12;;;;;;;15.63;10.05;;;10.60;1.00;;;12.35;44.87;99882.28;4999887;28;130195;-76
2022/03/25 09:05:41;;;;;;;17.00;10.18;;;10.60;1.00;;;12.33;44.62;99879.09;4984935;28;128569;-76
2022/03/25 09:08:10;;;;;;;19.77;10.63;;;10.50;1.00;;;12.30;45.08;99885.97;5000117;28;119441;-76
2022/03/25 09:10:38;;;;;;;17.65;10.95;;;10.60;1.00;;;12.54;44.75;99873.88;5000081;28;119597;-74
2022/03/25 09:13:08;;;;;;;15.43;9.75;;;10.80;1.00;;;12.76;44.74;99883.88;4999775;28;130735;-74
2022/03/25 09:15:37;;;;;;;17.27;10.07;;;11.00;1.00;;;12.62;44.69;99878.56;4999888;28;130554;-76
2022/03/25 09:18:05;;;;;;;15.73;9.75;;;11.00;1.00;;;12.92;44.05;99879.59;4998538;28;122045;-75
2022/03/25 09:20:34;;;;;;;15.73;9.32;;;11.10;1.00;;;13.18;44.14;99864.38;4999790;28;122118;-76
2022/03/25 09:23:03;;;;;;;15.18;9.38;;;11.20;1.00;;;13.34;43.19;99862.00;5021985;28;130973;-76
2022/03/25 09:25:32;;;;;;;16.13;9.25;;;11.20;1.00;;;13.20;43.69;99862.13;5019873;28;130037;-74
2022/03/25 09:28:00;;;;;;;13.48;8.85;;;11.20;1.00;;;13.09;44.05;99862.47;5019837;27;119599;-76
2022/03/25 09:30:31;;;;;;;15.07;9.35;;;11.30;1.00;;;13.46;44.30;99854.00;5019167;28;119416;-76
2022/03/25 09:32:59;;;;;;;15.23;9.90;;;11.50;1.00;;;13.65;44.54;99851.72;5019346;28;128981;-75
2022/03/25 09:35:28;;;;;;;14.23;9.23;;;11.70;1.00;;;14.00;43.50;99846.19;5018242;28;129881;-74
2022/03/25 09:37:57;;;;;;;19.38;9.90;;;12.00;1.00;;;13.99;42.26;99844.59;5021160;28;119215;-73
2022/03/25 09:40:28;;;;;;;17.00;9.07;;;11.90;1.00;;;13.85;42.59;99843.97;5019793;28;119634;-75
2022/03/25 09:42:58;;;;;;;13.23;8.52;;;11.90;1.00;;;13.82;43.06;99841.91;5002904;28;129454;-77
2022/03/25 09:45:30;;;;;;;14.43;8.93;;;11.80;1.00;;;14.06;42.95;99843.28;5019147;28;129588;-74
2022/03/25 09:47:59;;;;;;;16.30;8.98;;;12.20;1.00;;;14.36;42.19;99842.19;5019893;28;119777;-75
2022/03/25 09:50:31;;;;;;;17.00;9.50;;;12.30;1.00;;;14.53;42.31;99835.03;5034452;27;119629;-76
2022/03/25 09:53:00;;;;;;;13.98;8.55;;;12.40;1.00;;;14.30;42.26;99843.50;5039139;27;130119;-74
2022/03/25 09:55:31;;;;;;;13.20;8.68;;;12.20;1.00;;;14.28;42.25;99840.31;5024250;27;128669;-75
2022/03/25 09:58:02;;;;;;;13.60;8.35;;;12.10;1.00;;;14.56;42.35;99842.59;5039329;27;119478;-75
2022/03/25 10:00:34;;;;;;;14.57;8.60;;;12.40;1.00;;;14.50;42.18;99846.63;5042538;27;119486;-76
2022/03/25 10:03:02;;;;;;;16.17;8.48;;;12.40;1.00;;;14.51;42.03;99842.78;5024058;27;128785;-76
2022/03/25 10:05:31;;;;;;;16.02;8.73;;;12.50;1.00;;;14.63;42.25;99840.19;5039277;27;129305;-76
2022/03/25 10:08:01;;;;;;;15.35;8.93;;;12.50;1.00;;;14.54;42.34;99847.59;5038448;27;121953;-76
2022/03/25 10:10:30;;;;;;;15.30;8.20;;;12.60;1.00;;;14.70;42.26;99837.72;5008813;27;120735;-73
2022/03/25 10:13:02;;;;;;;16.95;9.13;;;12.70;1.00;;;14.72;42.25;99838.19;5024341;27;129889;-72
2022/03/25 10:15:34;;;;;;;13.95;8.20;;;12.70;1.00;;;14.88;41.73;99835.66;5027597;27;128208;-74
2022/03/25 10:18:06;;;;;;;12.60;7.45;;;12.80;1.00;;;14.98;42.14;99823.53;5040353;27;119524;-73
2022/03/25 10:20:37;;;;;;;12.45;7.30;;;12.90;1.00;;;14.77;42.74;99834.44;5020904;27;119767;-73
2022/03/25 10:23:11;;;;;;;12.52;6.80;;;12.60;1.00;;;14.90;42.25;99835.34;5023452;27;129335;-72
2022/03/25 10:25:47;;;;;;;16.58;8.43;;;12.90;1.00;;;14.81;42.01;99829.13;5024702;27;129790;-75